createdAt,value
2023-01-25T00:01:37.879Z,9.48
2023-01-25T00:03:40.022Z,9.60
2023-01-25T00:05:42.111Z,9.20
2023-01-25T00:07:44.201Z,7.53
2023-01-25T00:09:46.220Z,7.55
2023-01-25T00:11:48.582Z,8.30
2023-01-25T00:13:53.762Z,7.93
2023-01-25T00:16:05.045Z,9.63
2023-01-25T00:18:07.204Z,9.55
2023-01-25T00:20:10.476Z,9.93
2023-01-25T00:22:12.601Z,8.48
2023-01-25T00:24:14.969Z,10.35
2023-01-25T00:26:17.394Z,8.57
2023-01-25T00:28:19.407Z,11.35
2023-01-25T00:30:21.495Z,10.13
2023-01-25T00:32:23.558Z,10.45
2023-01-25T00:34:25.765Z,10.60
2023-01-25T00:36:38.345Z,9.20
2023-01-25T00:38:40.491Z,9.45
2023-01-25T00:40:42.551Z,11.10
2023-01-25T00:42:44.710Z,8.38
2023-01-25T00:44:47.466Z,10.32
2023-01-25T00:46:49.857Z,9.18
2023-01-25T00:48:55.318Z,8.85
2023-01-25T00:51:03.528Z,9.95
2023-01-25T00:53:05.682Z,11.13
2023-01-25T00:55:08.748Z,11.00
2023-01-25T00:57:11.151Z,9.32
2023-01-25T00:59:14.031Z,8.35
2023-01-25T01:01:16.240Z,10.20
2023-01-25T01:03:18.430Z,8.55
2023-01-25T01:05:21.108Z,9.48
2023-01-25T01:07:23.519Z,9.50
2023-01-25T01:09:27.282Z,10.05
2023-01-25T01:11:29.315Z,10.52
2023-01-25T01:13:32.936Z,9.73
2023-01-25T01:15:38.137Z,9.43
2023-01-25T01:17:40.286Z,12.05
2023-01-25T01:19:42.380Z,11.25
2023-01-25T01:21:44.445Z,9.52
2023-01-25T01:23:46.852Z,9.70
2023-01-25T01:25:49.239Z,8.63
2023-01-25T01:27:51.601Z,9.27
2023-01-25T01:29:53.717Z,11.00
2023-01-25T01:31:56.541Z,10.80
2023-01-25T01:34:01.287Z,9.77
2023-01-25T01:36:17.793Z,9.30
2023-01-25T01:38:19.861Z,8.40
2023-01-25T01:40:22.003Z,8.45
2023-01-25T01:42:24.308Z,9.02
2023-01-25T01:44:52.290Z,10.27
2023-01-25T01:46:59.231Z,7.85
2023-01-25T01:49:27.783Z,7.65
2023-01-25T01:51:44.660Z,7.10
2023-01-25T01:54:12.256Z,8.45
2023-01-25T01:56:19.800Z,7.50
2023-01-25T01:58:23.134Z,7.57
2023-01-25T02:00:36.859Z,7.57
2023-01-25T02:02:39.007Z,6.97
2023-01-25T02:04:44.554Z,6.13
2023-01-25T02:06:55.977Z,6.97
2023-01-25T02:08:58.829Z,6.97
2023-01-25T02:11:02.032Z,8.32
2023-01-25T02:13:04.105Z,6.40
2023-01-25T02:15:07.959Z,7.13
2023-01-25T02:17:12.024Z,6.53
2023-01-25T02:19:25.440Z,7.22
2023-01-25T02:21:30.706Z,7.88
2023-01-25T02:23:56.989Z,6.70
2023-01-25T02:26:03.419Z,7.80
2023-01-25T02:28:28.221Z,7.63
2023-01-25T02:30:31.370Z,7.22
2023-01-25T02:32:34.104Z,8.60
2023-01-25T02:34:36.522Z,8.30
2023-01-25T02:36:39.334Z,7.05
2023-01-25T02:38:47.140Z,7.55
2023-01-25T02:41:00.701Z,6.80
2023-01-25T02:43:05.047Z,7.97
2023-01-25T02:45:13.538Z,8.88
2023-01-25T02:47:15.540Z,7.97
2023-01-25T02:49:18.512Z,8.13
2023-01-25T02:51:22.598Z,8.30
2023-01-25T02:53:24.678Z,8.75
2023-01-25T02:55:26.951Z,8.05
2023-01-25T02:57:29.021Z,9.15
2023-01-25T02:59:31.535Z,8.52
2023-01-25T03:01:37.000Z,8.55
2023-01-25T03:03:39.687Z,9.20
2023-01-25T03:05:41.871Z,9.77
2023-01-25T03:07:43.967Z,9.40
2023-01-25T03:09:46.361Z,9.57
2023-01-25T03:11:48.484Z,9.02
2023-01-25T03:13:52.635Z,9.38
2023-01-25T03:16:10.249Z,8.55
2023-01-25T03:18:13.921Z,11.30
2023-01-25T03:20:16.401Z,9.20
2023-01-25T03:22:19.061Z,10.65
2023-01-25T03:24:21.560Z,9.05
2023-01-25T03:26:24.752Z,9.05
2023-01-25T03:28:56.106Z,9.90
2023-01-25T03:30:58.443Z,10.02
2023-01-25T03:33:00.889Z,8.95
2023-01-25T03:35:03.102Z,9.68
2023-01-25T03:37:05.373Z,9.98
2023-01-25T03:39:09.788Z,8.85
2023-01-25T03:41:16.104Z,9.07
2023-01-25T03:43:21.043Z,8.85
2023-01-25T03:45:25.670Z,8.50
2023-01-25T03:47:28.495Z,9.55
2023-01-25T03:49:30.759Z,9.38
2023-01-25T03:51:34.059Z,9.40
2023-01-25T03:53:37.508Z,10.02
2023-01-25T03:55:46.406Z,10.25
2023-01-25T03:57:49.237Z,8.95
2023-01-25T03:59:51.828Z,8.30
2023-01-25T04:01:54.072Z,8.98
2023-01-25T04:03:56.196Z,10.40
2023-01-25T04:05:59.410Z,9.57
2023-01-25T04:08:03.624Z,10.10
2023-01-25T04:10:11.911Z,9.55
2023-01-25T04:12:18.177Z,9.30
2023-01-25T04:14:35.078Z,8.20
2023-01-25T04:16:44.883Z,9.05
2023-01-25T04:18:59.368Z,9.73
2023-01-25T04:21:02.725Z,8.80
2023-01-25T04:23:07.137Z,9.10
2023-01-25T04:25:12.554Z,10.38
2023-01-25T04:27:20.226Z,8.48
2023-01-25T04:29:41.228Z,9.30
2023-01-25T04:31:48.113Z,8.75
2023-01-25T04:33:51.265Z,10.10
2023-01-25T04:35:55.443Z,9.52
2023-01-25T04:37:59.711Z,10.38
2023-01-25T04:40:10.424Z,9.52
2023-01-25T04:42:17.894Z,10.50
2023-01-25T04:44:23.749Z,11.27
2023-01-25T04:46:26.070Z,10.13
2023-01-25T04:48:29.320Z,11.02
2023-01-25T04:50:38.883Z,10.60
2023-01-25T04:52:40.917Z,11.88
2023-01-25T04:54:43.018Z,12.38
2023-01-25T04:56:47.010Z,12.85
2023-01-25T04:58:49.182Z,13.02
2023-01-25T05:00:51.345Z,13.65
2023-01-25T05:02:54.317Z,13.85
2023-01-25T05:04:57.460Z,13.27
2023-01-25T05:06:59.510Z,14.30
2023-01-25T05:09:02.459Z,14.70
2023-01-25T05:11:05.797Z,14.60
2023-01-25T05:13:14.749Z,17.75
2023-01-25T05:15:18.002Z,15.15
2023-01-25T05:17:20.350Z,15.50
2023-01-25T05:19:22.886Z,15.60
2023-01-25T05:21:50.626Z,14.32
2023-01-25T05:23:53.008Z,17.48
2023-01-25T05:26:14.250Z,15.38
2023-01-25T05:28:16.464Z,16.13
2023-01-25T05:30:38.439Z,18.70
2023-01-25T05:32:57.130Z,18.40
2023-01-25T05:35:00.921Z,17.75
2023-01-25T05:37:05.063Z,15.93
2023-01-25T05:39:08.827Z,19.40
2023-01-25T05:41:11.661Z,23.10
2023-01-25T05:43:13.865Z,21.70
2023-01-25T05:45:16.389Z,22.50
2023-01-25T05:47:20.911Z,19.98
2023-01-25T05:49:22.985Z,20.35
2023-01-25T05:51:25.104Z,19.23
2023-01-25T05:53:28.333Z,19.83
2023-01-25T05:55:35.736Z,18.70
2023-01-25T05:57:42.208Z,16.90
2023-01-25T05:59:44.557Z,16.02
2023-01-25T06:01:49.396Z,16.25
2023-01-25T06:03:53.089Z,16.63
2023-01-25T06:05:59.564Z,16.77
2023-01-25T06:08:01.949Z,16.58
2023-01-25T06:10:24.260Z,15.75
2023-01-25T06:12:27.798Z,14.40
2023-01-25T06:14:31.691Z,16.33
2023-01-25T06:16:34.049Z,15.43
2023-01-25T06:18:56.273Z,14.63
2023-01-25T06:21:16.689Z,16.60
2023-01-25T06:23:19.009Z,15.40
2023-01-25T06:25:21.054Z,15.18
2023-01-25T06:27:23.141Z,13.52
2023-01-25T06:29:25.472Z,15.07
2023-01-25T06:31:27.770Z,13.80
2023-01-25T06:33:29.952Z,17.20
2023-01-25T06:35:33.760Z,16.17
2023-01-25T06:37:35.777Z,13.27
2023-01-25T06:39:37.816Z,23.73
2023-01-25T06:41:39.959Z,14.20
2023-01-25T06:43:42.040Z,14.50
2023-01-25T06:45:44.076Z,14.00
2023-01-25T06:47:49.375Z,15.55
2023-01-25T06:49:51.499Z,15.45
2023-01-25T06:51:53.658Z,16.10
2023-01-25T06:53:55.846Z,16.52
2023-01-25T06:56:02.343Z,16.85
2023-01-25T06:58:05.047Z,16.33
2023-01-25T07:00:08.395Z,16.85
2023-01-25T07:02:15.884Z,15.82
2023-01-25T07:04:18.306Z,16.42
2023-01-25T07:06:21.801Z,16.45
2023-01-25T07:08:23.883Z,16.83
2023-01-25T07:10:26.244Z,16.35
2023-01-25T07:12:31.528Z,16.30
2023-01-25T07:14:33.978Z,17.13
2023-01-25T07:16:39.352Z,16.95
2023-01-25T07:18:42.431Z,18.17
2023-01-25T07:20:44.565Z,16.67
2023-01-25T07:22:46.586Z,21.65
2023-01-25T07:24:52.764Z,14.77
2023-01-25T07:26:55.158Z,15.45
2023-01-25T07:28:59.449Z,17.38
2023-01-25T07:31:06.857Z,15.07
2023-01-25T07:33:09.758Z,14.63
2023-01-25T07:35:12.194Z,14.45
2023-01-25T07:37:14.404Z,14.18
2023-01-25T07:39:17.311Z,12.68
2023-01-25T07:41:19.464Z,12.18
2023-01-25T07:43:21.591Z,13.10
2023-01-25T07:45:30.239Z,13.68
2023-01-25T07:47:32.402Z,12.65
2023-01-25T07:49:34.512Z,14.45
2023-01-25T07:51:37.102Z,14.70
2023-01-25T07:53:43.836Z,14.60
2023-01-25T07:55:45.922Z,14.23
2023-01-25T07:57:48.347Z,13.98
2023-01-25T07:59:50.387Z,15.35
2023-01-25T08:01:53.533Z,14.60
2023-01-25T08:03:57.763Z,24.77
2023-01-25T08:05:59.819Z,14.98
2023-01-25T08:08:01.855Z,13.30
2023-01-25T08:10:04.354Z,15.52
2023-01-25T08:12:08.629Z,17.17
2023-01-25T08:14:11.545Z,16.88
2023-01-25T08:16:14.618Z,15.98
2023-01-25T08:18:16.739Z,15.93
2023-01-25T08:20:19.390Z,16.80
2023-01-25T08:22:21.469Z,17.52
2023-01-25T08:24:25.517Z,19.20
2023-01-25T08:26:28.018Z,19.80
2023-01-25T08:28:30.167Z,19.55
2023-01-25T08:30:33.198Z,19.35
2023-01-25T08:32:37.305Z,27.08
2023-01-25T08:34:41.170Z,35.55
2023-01-25T08:36:43.541Z,24.10
2023-01-25T08:38:47.011Z,17.73
2023-01-25T08:40:49.149Z,16.67
2023-01-25T08:42:51.244Z,16.55
2023-01-25T08:44:53.407Z,18.30
2023-01-25T08:46:56.093Z,17.48
2023-01-25T08:48:58.454Z,17.05
2023-01-25T08:51:01.298Z,16.98
2023-01-25T08:53:03.287Z,16.73
2023-01-25T08:55:06.131Z,16.35
2023-01-25T08:57:08.185Z,17.05
2023-01-25T08:59:14.252Z,14.82
2023-01-25T09:01:18.390Z,15.07
2023-01-25T09:03:20.529Z,16.58
